sensor_id;sensor_type;location;lat;lon;timestamp;pressure;altitude;pressure_sealevel;temperature;humidity
36222;BME280;22266;52.340;4.962;2023-05-23T00:00:57;101973.25;;;15.56;71.54
36222;BME280;22266;52.340;4.962;2023-05-23T00:03:25;101976.97;;;15.48;71.51
36222;BME280;22266;52.340;4.962;2023-05-23T00:05:52;101971.03;;;15.38;72.04
36222;BME280;22266;52.340;4.962;2023-05-23T00:08:19;101981.72;;;15.40;72.31
36222;BME280;22266;52.340;4.962;2023-05-23T00:10:45;101980.22;;;15.37;71.37
36222;BME280;22266;52.340;4.962;2023-05-23T00:13:12;101972.38;;;15.21;72.46
36222;BME280;22266;52.340;4.962;2023-05-23T00:15:40;101990.16;;;15.23;72.66
36222;BME280;22266;52.340;4.962;2023-05-23T00:18:08;101986.31;;;15.18;72.18
36222;BME280;22266;52.340;4.962;2023-05-23T00:20:37;101992.19;;;15.21;72.47
36222;BME280;22266;52.340;4.962;2023-05-23T00:23:06;101985.94;;;15.21;71.82
36222;BME280;22266;52.340;4.962;2023-05-23T00:25:34;101975.63;;;15.09;71.61
36222;BME280;22266;52.340;4.962;2023-05-23T00:28:04;101973.13;;;15.08;72.51
36222;BME280;22266;52.340;4.962;2023-05-23T00:30:32;101984.00;;;15.15;72.38
36222;BME280;22266;52.340;4.962;2023-05-23T00:32:59;101981.75;;;15.18;72.46
36222;BME280;22266;52.340;4.962;2023-05-23T00:35:26;101984.72;;;15.23;72.30
36222;BME280;22266;52.340;4.962;2023-05-23T00:37:53;101990.63;;;15.33;72.42
36222;BME280;22266;52.340;4.962;2023-05-23T00:40:21;101992.28;;;15.34;72.05
36222;BME280;22266;52.340;4.962;2023-05-23T00:42:48;101995.00;;;15.34;71.63
36222;BME280;22266;52.340;4.962;2023-05-23T00:45:15;101991.22;;;15.29;71.87
36222;BME280;22266;52.340;4.962;2023-05-23T00:47:43;101986.63;;;15.29;72.48
36222;BME280;22266;52.340;4.962;2023-05-23T00:50:12;101996.66;;;15.29;72.68
36222;BME280;22266;52.340;4.962;2023-05-23T00:52:41;101991.84;;;15.31;72.59
36222;BME280;22266;52.340;4.962;2023-05-23T00:55:08;101992.25;;;15.28;72.18
36222;BME280;22266;52.340;4.962;2023-05-23T00:57:36;101996.59;;;15.22;72.75
36222;BME280;22266;52.340;4.962;2023-05-23T01:00:11;102000.19;;;15.29;73.39
36222;BME280;22266;52.340;4.962;2023-05-23T01:02:42;102010.66;;;15.32;72.87
36222;BME280;22266;52.340;4.962;2023-05-23T01:05:14;101998.97;;;15.32;72.82
36222;BME280;22266;52.340;4.962;2023-05-23T01:07:44;102000.19;;;15.29;73.12
36222;BME280;22266;52.340;4.962;2023-05-23T01:10:11;102001.03;;;15.30;73.20
36222;BME280;22266;52.340;4.962;2023-05-23T01:13:16;101998.28;;;15.23;72.05
36222;BME280;22266;52.340;4.962;2023-05-23T01:15:55;101995.97;;;15.20;73.05
36222;BME280;22266;52.340;4.962;2023-05-23T01:18:38;101995.13;;;15.20;73.18
36222;BME280;22266;52.340;4.962;2023-05-23T01:21:25;102000.53;;;15.20;72.31
36222;BME280;22266;52.340;4.962;2023-05-23T01:29:25;102000.28;;;15.15;72.26
36222;BME280;22266;52.340;4.962;2023-05-23T01:31:54;102002.59;;;15.18;71.87
36222;BME280;22266;52.340;4.962;2023-05-23T01:34:23;102000.72;;;15.18;71.48
36222;BME280;22266;52.340;4.962;2023-05-23T01:36:54;102015.91;;;15.13;71.25
36222;BME280;22266;52.340;4.962;2023-05-23T01:39:21;102002.88;;;15.01;71.18
36222;BME280;22266;52.340;4.962;2023-05-23T01:41:52;102002.44;;;14.98;72.13
36222;BME280;22266;52.340;4.962;2023-05-23T01:44:19;102004.22;;;14.91;71.94
36222;BME280;22266;52.340;4.962;2023-05-23T01:46:47;102010.06;;;14.88;72.09
36222;BME280;22266;52.340;4.962;2023-05-23T01:49:15;101994.81;;;14.87;72.33
36222;BME280;22266;52.340;4.962;2023-05-23T01:51:43;102008.69;;;14.98;72.72
36222;BME280;22266;52.340;4.962;2023-05-23T01:54:11;101993.31;;;15.05;71.84
36222;BME280;22266;52.340;4.962;2023-05-23T01:56:40;101991.31;;;15.14;72.00
36222;BME280;22266;52.340;4.962;2023-05-23T01:59:08;101987.97;;;15.12;71.54
36222;BME280;22266;52.340;4.962;2023-05-23T02:01:36;101996.72;;;15.14;71.15
36222;BME280;22266;52.340;4.962;2023-05-23T02:04:03;102000.94;;;15.17;71.29
36222;BME280;22266;52.340;4.962;2023-05-23T02:06:29;102005.91;;;15.13;70.93
36222;BME280;22266;52.340;4.962;2023-05-23T02:08:57;102015.69;;;15.07;70.89
36222;BME280;22266;52.340;4.962;2023-05-23T02:11:23;102010.19;;;15.01;70.86
36222;BME280;22266;52.340;4.962;2023-05-23T02:13:50;102020.78;;;14.96;71.21
36222;BME280;22266;52.340;4.962;2023-05-23T02:16:17;102020.50;;;14.91;70.66
36222;BME280;22266;52.340;4.962;2023-05-23T02:18:44;102025.63;;;14.79;70.87
36222;BME280;22266;52.340;4.962;2023-05-23T02:21:11;102028.34;;;14.79;71.15
36222;BME280;22266;52.340;4.962;2023-05-23T02:23:38;102036.06;;;14.82;70.52
36222;BME280;22266;52.340;4.962;2023-05-23T02:26:04;102035.34;;;14.73;69.91
36222;BME280;22266;52.340;4.962;2023-05-23T02:28:31;102044.16;;;14.75;70.51
36222;BME280;22266;52.340;4.962;2023-05-23T02:30:57;102046.28;;;14.80;70.36
36222;BME280;22266;52.340;4.962;2023-05-23T02:33:24;102051.88;;;14.78;69.77
36222;BME280;22266;52.340;4.962;2023-05-23T02:35:50;102055.88;;;14.82;70.41
36222;BME280;22266;52.340;4.962;2023-05-23T02:38:17;102052.88;;;14.92;70.10
36222;BME280;22266;52.340;4.962;2023-05-23T02:40:45;102049.50;;;14.90;69.32
36222;BME280;22266;52.340;4.962;2023-05-23T02:43:12;102055.25;;;14.80;69.37
36222;BME280;22266;52.340;4.962;2023-05-23T02:45:38;102062.66;;;14.72;69.36
36222;BME280;22266;52.340;4.962;2023-05-23T02:48:06;102055.28;;;14.66;69.22
36222;BME280;22266;52.340;4.962;2023-05-23T02:50:32;102057.22;;;14.72;69.17
36222;BME280;22266;52.340;4.962;2023-05-23T02:52:59;102056.78;;;14.68;69.10
36222;BME280;22266;52.340;4.962;2023-05-23T02:55:25;102068.00;;;14.65;69.14
36222;BME280;22266;52.340;4.962;2023-05-23T02:57:53;102064.91;;;14.68;69.02
36222;BME280;22266;52.340;4.962;2023-05-23T03:00:19;102065.75;;;14.69;69.11
36222;BME280;22266;52.340;4.962;2023-05-23T03:02:50;102064.53;;;14.71;69.30
36222;BME280;22266;52.340;4.962;2023-05-23T03:05:17;102065.94;;;14.67;68.87
36222;BME280;22266;52.340;4.962;2023-05-23T03:07:44;102056.69;;;14.62;68.77
36222;BME280;22266;52.340;4.962;2023-05-23T03:10:11;102061.94;;;14.63;69.04
36222;BME280;22266;52.340;4.962;2023-05-23T03:12:37;102062.94;;;14.62;68.79
36222;BME280;22266;52.340;4.962;2023-05-23T03:15:04;102071.75;;;14.49;68.11
36222;BME280;22266;52.340;4.962;2023-05-23T03:17:31;102070.44;;;14.45;69.04
36222;BME280;22266;52.340;4.962;2023-05-23T03:19:57;102071.28;;;14.46;69.31
36222;BME280;22266;52.340;4.962;2023-05-23T03:22:24;102075.22;;;14.43;68.70
36222;BME280;22266;52.340;4.962;2023-05-23T03:24:50;102070.63;;;14.44;69.34
36222;BME280;22266;52.340;4.962;2023-05-23T03:27:17;102077.25;;;14.41;68.86
36222;BME280;22266;52.340;4.962;2023-05-23T03:29:43;102093.16;;;14.44;69.04
36222;BME280;22266;52.340;4.962;2023-05-23T03:32:10;102078.78;;;14.29;68.55
36222;BME280;22266;52.340;4.962;2023-05-23T03:34:36;102075.31;;;14.20;68.53
36222;BME280;22266;52.340;4.962;2023-05-23T03:37:04;102081.94;;;14.18;68.94
36222;BME280;22266;52.340;4.962;2023-05-23T03:39:30;102080.75;;;14.05;68.70
36222;BME280;22266;52.340;4.962;2023-05-23T03:41:57;102089.34;;;14.09;69.12
36222;BME280;22266;52.340;4.962;2023-05-23T03:44:23;102099.53;;;14.07;69.17
36222;BME280;22266;52.340;4.962;2023-05-23T03:46:50;102089.16;;;13.96;68.65
36222;BME280;22266;52.340;4.962;2023-05-23T03:49:17;102099.44;;;13.85;69.15
36222;BME280;22266;52.340;4.962;2023-05-23T03:51:44;102101.09;;;13.87;69.19
36222;BME280;22266;52.340;4.962;2023-05-23T03:54:14;102096.53;;;13.87;68.85
36222;BME280;22266;52.340;4.962;2023-05-23T03:56:42;102099.72;;;13.91;69.42
36222;BME280;22266;52.340;4.962;2023-05-23T03:59:09;102103.88;;;13.93;69.03
36222;BME280;22266;52.340;4.962;2023-05-23T04:01:36;102109.13;;;13.95;68.80
36222;BME280;22266;52.340;4.962;2023-05-23T04:04:02;102108.28;;;13.94;68.77
36222;BME280;22266;52.340;4.962;2023-05-23T04:06:32;102114.94;;;14.06;69.05
36222;BME280;22266;52.340;4.962;2023-05-23T04:08:59;102117.34;;;14.01;68.17
36222;BME280;22266;52.340;4.962;2023-05-23T04:11:26;102113.88;;;13.93;68.43
36222;BME280;22266;52.340;4.962;2023-05-23T04:13:53;102116.13;;;13.89;67.96
36222;BME280;22266;52.340;4.962;2023-05-23T04:16:19;102116.78;;;13.91;68.23
36222;BME280;22266;52.340;4.962;2023-05-23T04:18:48;102115.88;;;13.99;68.11
36222;BME280;22266;52.340;4.962;2023-05-23T04:21:14;102121.66;;;14.10;67.79
36222;BME280;22266;52.340;4.962;2023-05-23T04:24:02;102122.41;;;14.19;67.17
36222;BME280;22266;52.340;4.962;2023-05-23T04:26:29;102119.84;;;14.18;67.57
36222;BME280;22266;52.340;4.962;2023-05-23T04:28:55;102124.63;;;14.16;67.00
36222;BME280;22266;52.340;4.962;2023-05-23T04:31:22;102133.78;;;14.15;66.88
36222;BME280;22266;52.340;4.962;2023-05-23T04:33:49;102140.78;;;14.09;66.78
36222;BME280;22266;52.340;4.962;2023-05-23T04:36:17;102147.59;;;14.05;66.50
36222;BME280;22266;52.340;4.962;2023-05-23T04:38:49;102158.81;;;14.02;66.68
36222;BME280;22266;52.340;4.962;2023-05-23T04:41:15;102162.63;;;14.07;66.63
36222;BME280;22266;52.340;4.962;2023-05-23T04:44:01;102165.53;;;14.06;66.25
36222;BME280;22266;52.340;4.962;2023-05-23T04:46:35;102165.44;;;13.99;66.17
36222;BME280;22266;52.340;4.962;2023-05-23T04:49:37;102153.84;;;13.91;64.79
36222;BME280;22266;52.340;4.962;2023-05-23T04:52:04;102161.56;;;13.79;65.42
36222;BME280;22266;52.340;4.962;2023-05-23T04:54:31;102162.66;;;13.70;64.74
36222;BME280;22266;52.340;4.962;2023-05-23T04:57:02;102166.94;;;13.64;65.12
36222;BME280;22266;52.340;4.962;2023-05-23T04:59:29;102163.09;;;13.58;64.45
36222;BME280;22266;52.340;4.962;2023-05-23T05:01:55;102170.00;;;13.61;65.23
36222;BME280;22266;52.340;4.962;2023-05-23T05:04:22;102165.44;;;13.62;64.89
36222;BME280;22266;52.340;4.962;2023-05-23T05:06:49;102172.47;;;13.71;65.23
36222;BME280;22266;52.340;4.962;2023-05-23T05:09:16;102172.25;;;13.72;64.54
36222;BME280;22266;52.340;4.962;2023-05-23T05:11:43;102181.69;;;13.76;65.25
36222;BME280;22266;52.340;4.962;2023-05-23T05:14:09;102170.16;;;13.82;64.98
36222;BME280;22266;52.340;4.962;2023-05-23T05:16:37;102187.72;;;13.87;65.35
36222;BME280;22266;52.340;4.962;2023-05-23T05:19:04;102182.09;;;13.73;64.11
36222;BME280;22266;52.340;4.962;2023-05-23T05:21:31;102194.03;;;13.56;63.82
36222;BME280;22266;52.340;4.962;2023-05-23T05:23:57;102195.97;;;13.47;64.29
36222;BME280;22266;52.340;4.962;2023-05-23T05:26:25;102198.19;;;13.44;64.68
36222;BME280;22266;52.340;4.962;2023-05-23T05:28:52;102202.78;;;13.43;65.02
36222;BME280;22266;52.340;4.962;2023-05-23T05:31:19;102204.44;;;13.44;65.29
36222;BME280;22266;52.340;4.962;2023-05-23T05:33:46;102214.78;;;13.41;65.52
36222;BME280;22266;52.340;4.962;2023-05-23T05:36:14;102207.19;;;13.36;65.62
36222;BME280;22266;52.340;4.962;2023-05-23T05:38:42;102214.84;;;13.32;65.82
36222;BME280;22266;52.340;4.962;2023-05-23T05:41:09;102212.25;;;13.39;65.81
36222;BME280;22266;52.340;4.962;2023-05-23T05:43:40;102205.53;;;13.35;65.55
36222;BME280;22266;52.340;4.962;2023-05-23T05:46:07;102213.28;;;13.38;66.39
36222;BME280;22266;52.340;4.962;2023-05-23T05:48:34;102214.31;;;13.37;66.60
36222;BME280;22266;52.340;4.962;2023-05-23T05:51:05;102212.75;;;13.43;66.92
36222;BME280;22266;52.340;4.962;2023-05-23T05:53:32;102212.00;;;13.49;67.09
36222;BME280;22266;52.340;4.962;2023-05-23T05:55:59;102221.44;;;13.53;67.28
36222;BME280;22266;52.340;4.962;2023-05-23T05:58:26;102214.38;;;13.52;67.03
36222;BME280;22266;52.340;4.962;2023-05-23T06:00:57;102226.09;;;13.44;68.16
36222;BME280;22266;52.340;4.962;2023-05-23T06:03:24;102229.69;;;13.36;68.34
36222;BME280;22266;52.340;4.962;2023-05-23T06:05:53;102223.34;;;13.21;68.75
36222;BME280;22266;52.340;4.962;2023-05-23T06:08:21;102228.31;;;13.09;69.30
36222;BME280;22266;52.340;4.962;2023-05-23T06:10:47;102239.28;;;13.08;69.96
36222;BME280;22266;52.340;4.962;2023-05-23T06:13:15;102235.53;;;13.17;70.56
36222;BME280;22266;52.340;4.962;2023-05-23T06:15:44;102235.34;;;13.19;69.82
36222;BME280;22266;52.340;4.962;2023-05-23T06:18:12;102240.97;;;13.09;69.41
36222;BME280;22266;52.340;4.962;2023-05-23T06:20:42;102247.06;;;13.03;69.32
36222;BME280;22266;52.340;4.962;2023-05-23T06:23:13;102241.03;;;13.01;69.88
36222;BME280;22266;52.340;4.962;2023-05-23T06:25:40;102248.72;;;13.12;69.86
36222;BME280;22266;52.340;4.962;2023-05-23T06:28:06;102249.69;;;13.19;69.27
36222;BME280;22266;52.340;4.962;2023-05-23T06:30:33;102248.34;;;13.23;69.47
36222;BME280;22266;52.340;4.962;2023-05-23T06:33:03;102259.50;;;13.20;68.87
36222;BME280;22266;52.340;4.962;2023-05-23T06:35:29;102255.09;;;13.19;69.34
36222;BME280;22266;52.340;4.962;2023-05-23T06:37:59;102257.66;;;13.21;68.79
36222;BME280;22266;52.340;4.962;2023-05-23T06:40:25;102245.78;;;13.30;68.70
36222;BME280;22266;52.340;4.962;2023-05-23T06:42:52;102258.97;;;13.33;67.57
36222;BME280;22266;52.340;4.962;2023-05-23T06:45:29;102255.88;;;13.36;67.05
36222;BME280;22266;52.340;4.962;2023-05-23T06:47:55;102243.19;;;13.36;66.51
36222;BME280;22266;52.340;4.962;2023-05-23T06:50:23;102250.28;;;13.46;65.68
36222;BME280;22266;52.340;4.962;2023-05-23T06:52:51;102249.13;;;13.63;64.86
36222;BME280;22266;52.340;4.962;2023-05-23T06:55:17;102255.19;;;13.65;63.58
36222;BME280;22266;52.340;4.962;2023-05-23T06:57:47;102257.59;;;13.60;63.14
36222;BME280;22266;52.340;4.962;2023-05-23T07:00:19;102247.91;;;13.43;62.58
36222;BME280;22266;52.340;4.962;2023-05-23T07:02:58;102265.53;;;13.39;62.15
36222;BME280;22266;52.340;4.962;2023-05-23T07:05:29;102260.66;;;13.34;62.16
36222;BME280;22266;52.340;4.962;2023-05-23T07:07:56;102255.34;;;13.41;61.80
36222;BME280;22266;52.340;4.962;2023-05-23T07:10:23;102265.47;;;13.47;62.05
36222;BME280;22266;52.340;4.962;2023-05-23T07:12:54;102273.63;;;13.39;62.13
36222;BME280;22266;52.340;4.962;2023-05-23T07:15:21;102268.72;;;13.42;62.32
36222;BME280;22266;52.340;4.962;2023-05-23T07:18:03;102278.25;;;13.53;61.61
36222;BME280;22266;52.340;4.962;2023-05-23T07:20:32;102271.53;;;13.49;61.06
36222;BME280;22266;52.340;4.962;2023-05-23T07:23:08;102272.56;;;13.48;61.69
36222;BME280;22266;52.340;4.962;2023-05-23T07:25:35;102272.44;;;13.41;61.61
36222;BME280;22266;52.340;4.962;2023-05-23T07:28:09;102279.97;;;13.54;61.92
36222;BME280;22266;52.340;4.962;2023-05-23T07:30:36;102279.03;;;13.70;61.98
36222;BME280;22266;52.340;4.962;2023-05-23T07:33:03;102270.38;;;13.74;61.60
36222;BME280;22266;52.340;4.962;2023-05-23T07:35:31;102273.00;;;13.59;61.36
36222;BME280;22266;52.340;4.962;2023-05-23T07:37:59;102280.91;;;13.61;60.90
36222;BME280;22266;52.340;4.962;2023-05-23T07:40:26;102271.31;;;13.58;60.54
36222;BME280;22266;52.340;4.962;2023-05-23T07:42:52;102283.94;;;13.66;60.91
36222;BME280;22266;52.340;4.962;2023-05-23T07:45:19;102287.94;;;13.78;60.65
36222;BME280;22266;52.340;4.962;2023-05-23T07:47:46;102286.97;;;13.94;60.76
36222;BME280;22266;52.340;4.962;2023-05-23T07:50:13;102289.34;;;14.12;61.04
36222;BME280;22266;52.340;4.962;2023-05-23T07:52:40;102289.34;;;14.12;59.13
36222;BME280;22266;52.340;4.962;2023-05-23T07:55:10;102290.53;;;14.09;57.77
36222;BME280;22266;52.340;4.962;2023-05-23T07:57:37;102299.63;;;14.17;58.58
36222;BME280;22266;52.340;4.962;2023-05-23T08:00:04;102293.78;;;14.28;59.65
36222;BME280;22266;52.340;4.962;2023-05-23T08:02:40;102292.13;;;14.42;59.24
36222;BME280;22266;52.340;4.962;2023-05-23T08:05:11;102291.34;;;14.56;59.13
36222;BME280;22266;52.340;4.962;2023-05-23T08:07:37;102288.66;;;14.71;59.28
36222;BME280;22266;52.340;4.962;2023-05-23T08:10:04;102301.16;;;14.87;58.61
36222;BME280;22266;52.340;4.962;2023-05-23T08:12:32;102301.25;;;14.78;57.08
36222;BME280;22266;52.340;4.962;2023-05-23T08:15:06;102305.38;;;14.74;56.43
36222;BME280;22266;52.340;4.962;2023-05-23T08:17:41;102293.69;;;14.74;56.30
36222;BME280;22266;52.340;4.962;2023-05-23T08:20:08;102314.13;;;14.62;56.75
36222;BME280;22266;52.340;4.962;2023-05-23T08:22:35;102322.31;;;14.39;56.83
36222;BME280;22266;52.340;4.962;2023-05-23T08:25:04;102314.25;;;14.30;57.39
36222;BME280;22266;52.340;4.962;2023-05-23T08:27:33;102315.75;;;14.33;57.22
36222;BME280;22266;52.340;4.962;2023-05-23T08:30:09;102320.69;;;14.29;56.69
36222;BME280;22266;52.340;4.962;2023-05-23T08:32:37;102323.94;;;14.25;56.52
36222;BME280;22266;52.340;4.962;2023-05-23T08:35:04;102320.03;;;14.27;57.14
36222;BME280;22266;52.340;4.962;2023-05-23T08:37:31;102315.66;;;14.26;57.14
36222;BME280;22266;52.340;4.962;2023-05-23T08:39:58;102322.53;;;14.29;56.92
36222;BME280;22266;52.340;4.962;2023-05-23T08:42:38;102318.53;;;14.25;56.57
36222;BME280;22266;52.340;4.962;2023-05-23T08:45:08;102322.44;;;14.22;56.24
36222;BME280;22266;52.340;4.962;2023-05-23T08:47:41;102311.22;;;14.25;56.20
36222;BME280;22266;52.340;4.962;2023-05-23T08:50:11;102307.59;;;14.33;56.55
36222;BME280;22266;52.340;4.962;2023-05-23T08:52:42;102321.91;;;14.42;56.68
36222;BME280;22266;52.340;4.962;2023-05-23T08:55:10;102321.19;;;14.48;57.19
36222;BME280;22266;52.340;4.962;2023-05-23T08:57:38;102327.41;;;14.33;57.30
36222;BME280;22266;52.340;4.962;2023-05-23T09:00:26;102328.63;;;14.31;56.78
36222;BME280;22266;52.340;4.962;2023-05-23T09:02:53;102345.91;;;14.30;56.90
36222;BME280;22266;52.340;4.962;2023-05-23T09:05:41;102337.69;;;14.23;54.77
36222;BME280;22266;52.340;4.962;2023-05-23T09:08:08;102335.53;;;14.33;55.13
36222;BME280;22266;52.340;4.962;2023-05-23T09:10:35;102329.00;;;14.51;54.60
36222;BME280;22266;52.340;4.962;2023-05-23T09:13:03;102331.91;;;14.64;55.06
36222;BME280;22266;52.340;4.962;2023-05-23T09:15:30;102356.09;;;14.66;55.81
36222;BME280;22266;52.340;4.962;2023-05-23T09:17:58;102337.22;;;14.57;56.24
36222;BME280;22266;52.340;4.962;2023-05-23T09:20:27;102349.94;;;14.57;56.57
36222;BME280;22266;52.340;4.962;2023-05-23T09:22:58;102344.03;;;14.53;56.57
36222;BME280;22266;52.340;4.962;2023-05-23T09:25:27;102354.16;;;14.74;56.53
36222;BME280;22266;52.340;4.962;2023-05-23T09:27:54;102344.44;;;14.65;54.93
36222;BME280;22266;52.340;4.962;2023-05-23T09:30:22;102352.97;;;14.77;54.13
36222;BME280;22266;52.340;4.962;2023-05-23T09:32:58;102356.50;;;14.77;54.57
36222;BME280;22266;52.340;4.962;2023-05-23T09:35:31;102359.22;;;14.77;54.74
36222;BME280;22266;52.340;4.962;2023-05-23T09:37:58;102360.88;;;14.78;54.92
36222;BME280;22266;52.340;4.962;2023-05-23T09:40:29;102358.94;;;14.72;55.48
36222;BME280;22266;52.340;4.962;2023-05-23T09:43:01;102372.38;;;14.66;55.55
36222;BME280;22266;52.340;4.962;2023-05-23T09:45:30;102372.22;;;14.67;55.97
36222;BME280;22266;52.340;4.962;2023-05-23T09:47:59;102368.75;;;14.73;55.44
36222;BME280;22266;52.340;4.962;2023-05-23T09:50:32;102367.94;;;14.88;55.43
36222;BME280;22266;52.340;4.962;2023-05-23T09:53:00;102365.97;;;14.96;54.28
36222;BME280;22266;52.340;4.962;2023-05-23T09:55:27;102361.66;;;15.02;54.67
36222;BME280;22266;52.340;4.962;2023-05-23T09:57:54;102377.78;;;15.03;54.61
36222;BME280;22266;52.340;4.962;2023-05-23T10:00:23;102374.56;;;14.85;54.55
36222;BME280;22266;52.340;4.962;2023-05-23T10:02:57;102386.31;;;14.77;54.84
36222;BME280;22266;52.340;4.962;2023-05-23T10:05:37;102376.41;;;14.70;54.62
36222;BME280;22266;52.340;4.962;2023-05-23T10:08:13;102383.88;;;14.68;55.67
36222;BME280;22266;52.340;4.962;2023-05-23T10:13:24;102383.13;;;14.59;55.79
36222;BME280;22266;52.340;4.962;2023-05-23T10:15:59;102385.28;;;14.64;55.92
36222;BME280;22266;52.340;4.962;2023-05-23T10:18:34;102389.53;;;14.58;55.34
36222;BME280;22266;52.340;4.962;2023-05-23T10:21:10;102393.41;;;14.64;55.58
36222;BME280;22266;52.340;4.962;2023-05-23T10:23:38;102385.91;;;14.66;55.15
36222;BME280;22266;52.340;4.962;2023-05-23T10:26:04;102382.59;;;14.78;55.26
36222;BME280;22266;52.340;4.962;2023-05-23T10:28:32;102374.94;;;14.97;54.88
36222;BME280;22266;52.340;4.962;2023-05-23T10:30:58;102388.81;;;15.17;53.49
36222;BME280;22266;52.340;4.962;2023-05-23T10:33:27;102379.72;;;15.09;52.81
36222;BME280;22266;52.340;4.962;2023-05-23T10:36:06;102390.50;;;15.03;53.18
36222;BME280;22266;52.340;4.962;2023-05-23T10:38:58;102388.88;;;14.94;52.52
36222;BME280;22266;52.340;4.962;2023-05-23T10:41:55;102382.72;;;15.00;52.97
36222;BME280;22266;52.340;4.962;2023-05-23T10:44:30;102392.16;;;15.04;52.65
36222;BME280;22266;52.340;4.962;2023-05-23T10:46:58;102379.72;;;15.09;52.82
36222;BME280;22266;52.340;4.962;2023-05-23T10:49:44;102391.41;;;15.10;53.71
36222;BME280;22266;52.340;4.962;2023-05-23T10:52:12;102388.34;;;15.13;53.65
36222;BME280;22266;52.340;4.962;2023-05-23T10:54:43;102388.06;;;15.08;53.69
36222;BME280;22266;52.340;4.962;2023-05-23T10:57:11;102395.97;;;14.95;53.31
36222;BME280;22266;52.340;4.962;2023-05-23T10:59:38;102388.69;;;14.80;53.41
36222;BME280;22266;52.340;4.962;2023-05-23T11:02:11;102383.91;;;14.82;53.86
36222;BME280;22266;52.340;4.962;2023-05-23T11:04:40;102393.53;;;14.85;53.29
36222;BME280;22266;52.340;4.962;2023-05-23T11:07:29;102392.22;;;14.81;51.91
36222;BME280;22266;52.340;4.962;2023-05-23T11:10:22;102394.94;;;14.81;52.48
36222;BME280;22266;52.340;4.962;2023-05-23T11:12:49;102401.38;;;14.80;53.11
36222;BME280;22266;52.340;4.962;2023-05-23T11:17:51;102389.81;;;15.01;52.13
36222;BME280;22266;52.340;4.962;2023-05-23T11:20:19;102387.19;;;15.22;51.76
36222;BME280;22266;52.340;4.962;2023-05-23T11:22:54;102401.34;;;15.32;52.16
36222;BME280;22266;52.340;4.962;2023-05-23T11:25:51;102391.03;;;15.43;53.02
36222;BME280;22266;52.340;4.962;2023-05-23T11:28:19;102388.22;;;15.51;52.02
36222;BME280;22266;52.340;4.962;2023-05-23T11:30:49;102392.22;;;15.55;50.85
36222;BME280;22266;52.340;4.962;2023-05-23T11:33:16;102398.69;;;15.54;50.59
36222;BME280;22266;52.340;4.962;2023-05-23T11:35:48;102399.47;;;15.48;50.96
36222;BME280;22266;52.340;4.962;2023-05-23T11:38:17;102408.72;;;15.53;50.49
36222;BME280;22266;52.340;4.962;2023-05-23T11:40:45;102413.19;;;15.61;50.70
36222;BME280;22266;52.340;4.962;2023-05-23T11:43:16;102410.22;;;15.56;50.72
36222;BME280;22266;52.340;4.962;2023-05-23T11:45:43;102408.81;;;15.60;50.79
36222;BME280;22266;52.340;4.962;2023-05-23T11:48:15;102403.69;;;15.65;49.79
36222;BME280;22266;52.340;4.962;2023-05-23T11:50:45;102403.69;;;15.65;49.40
36222;BME280;22266;52.340;4.962;2023-05-23T11:53:12;102398.50;;;15.70;49.26
36222;BME280;22266;52.340;4.962;2023-05-23T11:55:39;102401.50;;;15.75;48.98
36222;BME280;22266;52.340;4.962;2023-05-23T11:58:08;102389.34;;;15.71;49.44
36222;BME280;22266;52.340;4.962;2023-05-23T12:00:42;102394.19;;;15.61;48.53
36222;BME280;22266;52.340;4.962;2023-05-23T12:03:08;102400.31;;;15.33;49.48
36222;BME280;22266;52.340;4.962;2023-05-23T12:05:35;102405.25;;;15.30;50.61
36222;BME280;22266;52.340;4.962;2023-05-23T12:08:02;102407.50;;;15.26;50.61
36222;BME280;22266;52.340;4.962;2023-05-23T12:10:29;102405.16;;;15.38;50.38
36222;BME280;22266;52.340;4.962;2023-05-23T12:12:55;102404.59;;;15.43;48.78
36222;BME280;22266;52.340;4.962;2023-05-23T12:15:25;102401.50;;;15.61;49.48
36222;BME280;22266;52.340;4.962;2023-05-23T12:17:55;102399.75;;;15.53;48.65
36222;BME280;22266;52.340;4.962;2023-05-23T12:20:22;102407.94;;;15.59;47.75
36222;BME280;22266;52.340;4.962;2023-05-23T12:22:49;102408.41;;;15.63;47.48
36222;BME280;22266;52.340;4.962;2023-05-23T12:25:16;102405.72;;;15.78;48.54
36222;BME280;22266;52.340;4.962;2023-05-23T12:27:42;102415.88;;;15.91;49.33
36222;BME280;22266;52.340;4.962;2023-05-23T12:30:14;102414.84;;;15.92;48.73
36222;BME280;22266;52.340;4.962;2023-05-23T12:32:43;102398.38;;;15.93;47.89
36222;BME280;22266;52.340;4.962;2023-05-23T12:35:12;102414.72;;;16.00;48.18
36222;BME280;22266;52.340;4.962;2023-05-23T12:37:45;102410.00;;;15.87;48.22
36222;BME280;22266;52.340;4.962;2023-05-23T12:40:13;102408.97;;;15.88;48.36
36222;BME280;22266;52.340;4.962;2023-05-23T12:42:58;102419.19;;;15.86;47.24
36222;BME280;22266;52.340;4.962;2023-05-23T12:45:35;102413.16;;;15.91;48.21
36222;BME280;22266;52.340;4.962;2023-05-23T12:48:02;102413.84;;;15.93;47.04
36222;BME280;22266;52.340;4.962;2023-05-23T12:50:29;102417.84;;;15.97;47.57
36222;BME280;22266;52.340;4.962;2023-05-23T12:52:56;102412.47;;;16.03;46.85
36222;BME280;22266;52.340;4.962;2023-05-23T12:55:23;102416.56;;;15.93;45.90
36222;BME280;22266;52.340;4.962;2023-05-23T12:57:49;102416.16;;;15.96;45.81
36222;BME280;22266;52.340;4.962;2023-05-23T13:00:17;102417.03;;;15.81;45.90
36222;BME280;22266;52.340;4.962;2023-05-23T13:02:44;102409.16;;;15.87;46.67
36222;BME280;22266;52.340;4.962;2023-05-23T13:05:11;102414.94;;;15.98;45.59
36222;BME280;22266;52.340;4.962;2023-05-23T13:07:38;102417.56;;;15.92;46.39
36222;BME280;22266;52.340;4.962;2023-05-23T13:10:05;102424.97;;;15.83;47.95
36222;BME280;22266;52.340;4.962;2023-05-23T13:12:31;102432.13;;;15.84;48.61